Time;durP1;ratioP1;P1;durP2;ratioP2;P2;SDS_P1;SDS_P2;PMS_P1;PMS_P2;Temp;Humidity;BMP_temperature;BMP_pressure;BME280_temperature;BME280_humidity;BME280_pressure;Samples;Min_cycle;Max_cycle;Signal;HPM_P1;HPM_P2
2022/01/12 00:02:32;;;;;;;;;47.75;36.00;;;;;;;;5039835;28;51573;-51
2022/01/12 00:05:18;;;;;;;;;47.75;39.00;;;;;;;;5039362;28;51144;-51
2022/01/12 00:08:08;;;;;;;;;48.50;38.00;;;;;;;;5023683;28;51173;-47
2022/01/12 00:10:56;;;;;;;;;51.25;38.50;;;;;;;;5039167;28;51426;-47
2022/01/12 00:14:05;;;;;;;;;49.50;37.25;;;;;;;;5039513;28;51044;-48
2022/01/12 00:16:57;;;;;;;;;48.75;37.50;;;;;;;;5039384;28;51116;-48
2022/01/12 00:19:43;;;;;;;;;44.25;35.75;;;;;;;;5039220;28;51112;-47
2022/01/12 00:22:28;;;;;;;;;47.25;37.50;;;;;;;;5039751;28;51151;-47
2022/01/12 00:25:31;;;;;;;;;47.25;36.50;;;;;;;;5039274;28;51570;-48
2022/01/12 00:34:51;;;;;;;;;41.50;34.25;;;;;;;;5039519;28;51086;-52
2022/01/12 00:37:36;;;;;;;;;44.00;33.75;;;;;;;;5037948;28;51222;-50
2022/01/12 00:40:25;;;;;;;;;40.25;32.25;;;;;;;;5039157;28;51123;-51
2022/01/12 00:43:11;;;;;;;;;40.25;33.25;;;;;;;;5038953;28;51171;-49
2022/01/12 00:45:59;;;;;;;;;45.25;34.75;;;;;;;;5037786;28;51045;-45
2022/01/12 00:48:46;;;;;;;;;41.00;33.00;;;;;;;;5038234;28;51486;-48
2022/01/12 00:51:32;;;;;;;;;43.00;34.25;;;;;;;;5038858;28;51423;-47
2022/01/12 00:54:17;;;;;;;;;47.50;34.75;;;;;;;;5038989;28;51894;-51
2022/01/12 00:57:08;;;;;;;;;40.75;32.00;;;;;;;;5038918;28;51179;-50
2022/01/12 00:59:59;;;;;;;;;45.00;35.25;;;;;;;;5039245;28;51143;-48
2022/01/12 01:02:48;;;;;;;;;35.50;31.00;;;;;;;;5039122;28;51320;-45
2022/01/12 01:06:01;;;;;;;;;42.50;35.00;;;;;;;;5038737;28;51110;-49
2022/01/12 01:08:50;;;;;;;;;48.25;37.00;;;;;;;;5039051;28;51388;-49
2022/01/12 01:11:37;;;;;;;;;45.50;35.50;;;;;;;;5042598;28;51013;-48
2022/01/12 01:14:37;;;;;;;;;46.25;35.50;;;;;;;;5043007;28;51375;-49
2022/01/12 01:26:36;;;;;;;;;47.25;36.50;;;;;;;;5042920;28;51293;-50
2022/01/12 01:29:29;;;;;;;;;41.75;33.00;;;;;;;;5042510;28;51478;-51
2022/01/12 01:32:35;;;;;;;;;46.75;36.25;;;;;;;;5042739;28;51047;-50
2022/01/12 01:35:40;;;;;;;;;40.00;32.75;;;;;;;;5042275;28;51709;-51
2022/01/12 01:38:28;;;;;;;;;44.00;35.50;;;;;;;;5037871;28;51262;-49
2022/01/12 01:41:37;;;;;;;;;44.50;35.50;;;;;;;;5042736;28;51123;-52
2022/01/12 01:53:34;;;;;;;;;45.25;34.00;;;;;;;;5042382;28;51130;-48
2022/01/12 01:56:20;;;;;;;;;45.75;33.75;;;;;;;;5041963;28;51052;-50
2022/01/12 01:59:06;;;;;;;;;43.50;33.75;;;;;;;;5041770;28;51227;-52
2022/01/12 02:02:10;;;;;;;;;38.50;30.75;;;;;;;;5041720;28;51116;-46
2022/01/12 02:04:56;;;;;;;;;43.25;35.00;;;;;;;;5041660;28;51572;-52
2022/01/12 02:07:43;;;;;;;;;43.25;35.00;;;;;;;;5042211;28;51120;-49
2022/01/12 02:10:30;;;;;;;;;41.25;32.75;;;;;;;;5041855;28;51434;-48
2022/01/12 02:13:42;;;;;;;;;39.50;31.75;;;;;;;;5041919;28;51580;-48
2022/01/12 02:16:34;;;;;;;;;36.50;32.75;;;;;;;;5041634;28;51076;-51
2022/01/12 02:19:50;;;;;;;;;38.50;33.00;;;;;;;;5039831;28;51182;-50
2022/01/12 02:35:37;;;;;;;;;37.25;30.75;;;;;;;;5041598;28;50977;-46
2022/01/12 02:41:27;;;;;;;;;41.00;33.00;;;;;;;;5025091;28;51048;-49
2022/01/12 02:50:57;;;;;;;;;38.50;33.25;;;;;;;;5041088;28;51128;-52
2022/01/12 02:53:43;;;;;;;;;39.25;33.75;;;;;;;;5041241;28;51103;-51
2022/01/12 02:56:37;;;;;;;;;44.75;35.75;;;;;;;;5040928;28;51679;-49
2022/01/12 02:59:22;;;;;;;;;41.00;33.00;;;;;;;;5040811;28;51120;-46
2022/01/12 03:05:26;;;;;;;;;40.25;31.50;;;;;;;;5041153;28;51113;-51
2022/01/12 03:08:15;;;;;;;;;42.00;32.25;;;;;;;;5039466;28;51596;-50
2022/01/12 03:10:59;;;;;;;;;45.50;34.00;;;;;;;;5040765;28;51049;-49
2022/01/12 03:13:44;;;;;;;;;43.25;33.25;;;;;;;;5040999;28;51207;-48
2022/01/12 03:16:30;;;;;;;;;44.75;34.25;;;;;;;;5033512;28;51180;-46
2022/01/12 03:19:18;;;;;;;;;45.00;35.00;;;;;;;;5040319;28;51186;-48
2022/01/12 03:22:03;;;;;;;;;39.25;32.50;;;;;;;;5040714;28;51154;-47
2022/01/12 03:25:09;;;;;;;;;41.50;33.00;;;;;;;;5040524;28;51113;-48
2022/01/12 03:28:00;;;;;;;;;50.50;36.00;;;;;;;;5040555;28;51155;-49
2022/01/12 03:30:54;;;;;;;;;39.25;35.25;;;;;;;;5024116;28;51175;-47
2022/01/12 03:37:54;;;;;;;;;43.50;34.00;;;;;;;;5040095;28;51145;-48
2022/01/12 03:40:25;;;;;;;;;41.25;33.75;;;;;;;;5040339;28;51120;-48
2022/01/12 03:43:10;;;;;;;;;42.75;34.50;;;;;;;;5040088;28;51403;-48
2022/01/12 03:46:04;;;;;;;;;43.25;33.00;;;;;;;;5040312;28;51111;-51
2022/01/12 03:48:52;;;;;;;;;47.75;35.00;;;;;;;;5039704;28;51043;-47
2022/01/12 03:51:37;;;;;;;;;46.75;36.25;;;;;;;;5039969;28;50969;-46
2022/01/12 03:54:22;;;;;;;;;44.00;35.50;;;;;;;;5039847;28;51154;-46
2022/01/12 03:57:08;;;;;;;;;44.75;34.00;;;;;;;;5040052;28;51061;-51
2022/01/12 04:00:08;;;;;;;;;48.50;36.50;;;;;;;;5039882;28;51527;-52
2022/01/12 04:02:54;;;;;;;;;43.75;34.50;;;;;;;;5039427;28;51072;-52
2022/01/12 04:09:09;;;;;;;;;45.25;36.00;;;;;;;;5039468;28;51611;-48
2022/01/12 04:11:55;;;;;;;;;45.75;36.50;;;;;;;;5039443;28;51222;-50
2022/01/12 04:14:41;;;;;;;;;46.75;36.50;;;;;;;;5039836;28;51836;-49
2022/01/12 04:17:51;;;;;;;;;48.00;36.50;;;;;;;;5039532;28;51169;-51
2022/01/12 04:20:44;;;;;;;;;44.00;36.00;;;;;;;;5039263;28;51449;-48
2022/01/12 04:23:29;;;;;;;;;44.75;37.00;;;;;;;;5039374;28;51061;-51
2022/01/12 04:26:15;;;;;;;;;47.50;35.25;;;;;;;;5039775;28;51487;-47
2022/01/12 04:29:00;;;;;;;;;44.25;33.00;;;;;;;;5039236;28;51149;-54
2022/01/12 04:31:50;;;;;;;;;40.25;35.25;;;;;;;;5039777;28;51176;-48
2022/01/12 04:34:47;;;;;;;;;48.50;37.00;;;;;;;;5039226;28;51567;-50
2022/01/12 04:37:37;;;;;;;;;46.75;33.25;;;;;;;;5039248;28;51118;-48
2022/01/12 04:40:36;;;;;;;;;44.25;35.25;;;;;;;;5039210;28;51167;-49
2022/01/12 04:43:22;;;;;;;;;48.00;35.50;;;;;;;;5039406;28;51087;-52
2022/01/12 04:52:13;;;;;;;;;47.25;38.00;;;;;;;;4997972;28;51199;-46
2022/01/12 04:55:00;;;;;;;;;51.00;37.75;;;;;;;;4996575;28;51419;-50
2022/01/12 04:57:46;;;;;;;;;51.75;40.00;;;;;;;;4997479;28;51121;-49
2022/01/12 05:00:32;;;;;;;;;53.50;41.75;;;;;;;;4996879;28;51212;-48
2022/01/12 05:09:50;;;;;;;;;65.25;45.50;;;;;;;;5038379;28;51176;-47
2022/01/12 05:12:54;;;;;;;;;57.00;42.25;;;;;;;;5034823;28;51155;-46
2022/01/12 05:15:49;;;;;;;;;55.75;42.25;;;;;;;;5038011;28;51109;-47
2022/01/12 05:18:34;;;;;;;;;56.25;43.00;;;;;;;;5038385;28;51630;-46
2022/01/12 05:21:50;;;;;;;;;56.75;45.00;;;;;;;;5038133;28;51147;-47
2022/01/12 05:24:36;;;;;;;;;56.50;44.50;;;;;;;;5038144;28;51218;-47
2022/01/12 05:27:21;;;;;;;;;55.50;44.00;;;;;;;;5037494;28;51123;-49
2022/01/12 05:30:09;;;;;;;;;51.25;38.00;;;;;;;;5038773;28;51380;-48
2022/01/12 05:32:54;;;;;;;;;56.75;43.50;;;;;;;;5038725;28;51626;-46
2022/01/12 05:35:42;;;;;;;;;57.25;44.75;;;;;;;;5039029;28;51146;-51
2022/01/12 05:38:30;;;;;;;;;56.00;44.50;;;;;;;;5038235;28;51167;-48
2022/01/12 05:41:26;;;;;;;;;56.50;45.75;;;;;;;;5037487;28;51120;-48
2022/01/12 05:44:13;;;;;;;;;61.25;46.25;;;;;;;;5038516;28;51243;-54
2022/01/12 05:47:08;;;;;;;;;57.50;44.00;;;;;;;;5038111;28;51167;-47
2022/01/12 05:49:53;;;;;;;;;60.50;45.00;;;;;;;;5038942;28;51096;-51
2022/01/12 05:52:43;;;;;;;;;55.25;44.00;;;;;;;;5038465;28;51543;-45
2022/01/12 05:55:28;;;;;;;;;60.75;46.50;;;;;;;;5038130;28;51177;-53
2022/01/12 05:58:17;;;;;;;;;57.50;43.50;;;;;;;;5042065;28;51684;-52
2022/01/12 06:01:04;;;;;;;;;60.00;46.50;;;;;;;;5042137;28;51320;-49
2022/01/12 06:03:49;;;;;;;;;63.50;46.50;;;;;;;;5042038;28;51534;-49
2022/01/12 06:06:46;;;;;;;;;55.75;41.50;;;;;;;;5041894;28;51090;-50
2022/01/12 06:09:40;;;;;;;;;58.00;43.50;;;;;;;;5042231;28;51085;-49
2022/01/12 06:12:28;;;;;;;;;48.00;37.25;;;;;;;;5040981;28;51215;-51
2022/01/12 06:15:12;;;;;;;;;49.75;37.75;;;;;;;;5042596;28;51234;-49
2022/01/12 06:17:57;;;;;;;;;43.25;33.00;;;;;;;;5041684;28;51471;-48
2022/01/12 06:20:57;;;;;;;;;45.25;36.50;;;;;;;;5041911;28;51195;-48
2022/01/12 06:23:54;;;;;;;;;44.25;34.75;;;;;;;;5041869;28;51071;-48
2022/01/12 06:26:43;;;;;;;;;42.75;33.25;;;;;;;;5041465;28;51044;-47
2022/01/12 06:29:41;;;;;;;;;48.25;38.25;;;;;;;;5039626;28;51468;-49
2022/01/12 06:32:34;;;;;;;;;43.00;35.00;;;;;;;;5040159;28;51044;-47
2022/01/12 06:35:29;;;;;;;;;46.50;37.75;;;;;;;;5041352;28;51063;-47
2022/01/12 06:38:14;;;;;;;;;47.00;35.00;;;;;;;;5041028;28;51143;-52
2022/01/12 06:40:58;;;;;;;;;45.25;33.50;;;;;;;;5041169;28;51104;-48
2022/01/12 06:43:44;;;;;;;;;45.75;36.25;;;;;;;;5040336;28;51476;-48
2022/01/12 06:46:30;;;;;;;;;45.25;36.50;;;;;;;;5040523;28;51071;-48
2022/01/12 06:49:18;;;;;;;;;40.25;35.00;;;;;;;;5039782;28;51151;-51
2022/01/12 06:52:03;;;;;;;;;49.50;37.25;;;;;;;;5040906;28;51142;-48
2022/01/12 06:54:50;;;;;;;;;38.75;34.00;;;;;;;;5039678;28;51060;-47
2022/01/12 06:57:34;;;;;;;;;46.00;36.00;;;;;;;;5040360;28;51067;-47
2022/01/12 07:00:20;;;;;;;;;47.00;36.00;;;;;;;;5038898;28;51663;-48
2022/01/12 07:03:08;;;;;;;;;46.50;35.00;;;;;;;;5040008;28;51001;-51
2022/01/12 07:06:05;;;;;;;;;44.50;34.50;;;;;;;;5040354;28;51165;-48
2022/01/12 07:09:27;;;;;;;;;43.75;34.25;;;;;;;;5037788;28;51543;-51
2022/01/12 07:12:21;;;;;;;;;44.75;33.25;;;;;;;;5036032;28;51170;-52
2022/01/12 07:15:07;;;;;;;;;47.50;34.00;;;;;;;;5040384;28;51432;-48
2022/01/12 07:18:02;;;;;;;;;43.75;34.75;;;;;;;;5040052;28;51160;-50
2022/01/12 07:20:55;;;;;;;;;44.25;33.50;;;;;;;;5040456;28;51450;-49
2022/01/12 07:23:42;;;;;;;;;43.75;34.75;;;;;;;;5040562;28;51268;-48
2022/01/12 07:26:46;;;;;;;;;46.25;35.25;;;;;;;;5040649;28;51647;-49
2022/01/12 07:29:32;;;;;;;;;45.25;35.50;;;;;;;;5040060;28;51127;-51
2022/01/12 07:32:17;;;;;;;;;38.50;31.75;;;;;;;;5040788;28;51048;-47
2022/01/12 07:35:04;;;;;;;;;42.75;34.00;;;;;;;;5040118;28;51398;-48
2022/01/12 07:37:50;;;;;;;;;43.50;32.50;;;;;;;;5040095;28;51081;-51
2022/01/12 07:40:36;;;;;;;;;39.75;31.00;;;;;;;;5038025;28;51141;-49
2022/01/12 07:43:22;;;;;;;;;39.00;32.00;;;;;;;;5035836;28;51073;-51
2022/01/12 07:46:12;;;;;;;;;37.75;30.75;;;;;;;;5033057;28;51056;-50
2022/01/12 07:48:57;;;;;;;;;43.25;32.75;;;;;;;;5039259;28;51271;-49
2022/01/12 07:51:41;;;;;;;;;45.00;35.75;;;;;;;;5039534;28;51685;-45
2022/01/12 07:54:28;;;;;;;;;34.50;30.00;;;;;;;;5040092;28;51160;-53
2022/01/12 07:57:28;;;;;;;;;42.00;33.00;;;;;;;;5040504;28;51012;-50
2022/01/12 08:00:15;;;;;;;;;35.00;31.00;;;;;;;;5039597;28;51092;-50
2022/01/12 08:03:09;;;;;;;;;41.25;31.75;;;;;;;;5039663;28;51242;-51
2022/01/12 08:06:17;;;;;;;;;33.50;30.00;;;;;;;;5039650;28;51291;-49
2022/01/12 08:09:02;;;;;;;;;35.25;29.50;;;;;;;;5033724;28;51808;-50
2022/01/12 08:11:47;;;;;;;;;36.25;31.00;;;;;;;;5036570;28;51502;-53
2022/01/12 08:14:54;;;;;;;;;37.00;29.50;;;;;;;;5039193;28;51408;-48
2022/01/12 08:17:40;;;;;;;;;42.00;34.25;;;;;;;;5033986;28;51669;-50
2022/01/12 08:20:28;;;;;;;;;42.50;34.00;;;;;;;;5036843;28;51163;-49
2022/01/12 08:23:15;;;;;;;;;45.00;33.25;;;;;;;;5036897;28;51159;-50
2022/01/12 08:26:00;;;;;;;;;38.75;32.25;;;;;;;;5035742;28;51536;-54
2022/01/12 08:29:02;;;;;;;;;38.25;30.75;;;;;;;;5039470;28;51030;-52
2022/01/12 08:31:52;;;;;;;;;41.75;32.00;;;;;;;;5039262;28;51088;-52
2022/01/12 08:34:57;;;;;;;;;38.50;32.25;;;;;;;;5039550;28;51043;-52
2022/01/12 08:37:41;;;;;;;;;41.75;32.25;;;;;;;;5038595;28;51155;-48
2022/01/12 08:40:25;;;;;;;;;39.25;32.50;;;;;;;;5038994;28;51202;-52
2022/01/12 08:43:14;;;;;;;;;38.50;30.75;;;;;;;;5039013;28;51052;-51
2022/01/12 08:45:59;;;;;;;;;36.50;31.25;;;;;;;;5039326;28;51167;-47
2022/01/12 08:48:44;;;;;;;;;36.00;29.50;;;;;;;;5034133;28;51013;-52
2022/01/12 08:51:38;;;;;;;;;39.50;29.50;;;;;;;;5018901;28;51059;-49
2022/01/12 08:54:32;;;;;;;;;37.50;28.00;;;;;;;;5018954;28;51659;-52
2022/01/12 08:57:29;;;;;;;;;33.25;28.50;;;;;;;;5018698;28;51154;-52
2022/01/12 09:00:19;;;;;;;;;40.00;30.75;;;;;;;;5019180;28;51034;-47
2022/01/12 09:03:24;;;;;;;;;34.00;28.75;;;;;;;;5018669;28;51238;-51
2022/01/12 09:06:09;;;;;;;;;38.50;29.50;;;;;;;;5018923;28;51164;-49
2022/01/12 09:09:17;;;;;;;;;41.75;31.00;;;;;;;;5011443;28;51522;-52
2022/01/12 09:12:13;;;;;;;;;35.50;28.00;;;;;;;;5019014;28;51167;-50
2022/01/12 09:15:01;;;;;;;;;40.50;30.00;;;;;;;;5019505;28;51066;-52
2022/01/12 09:17:46;;;;;;;;;41.00;30.50;;;;;;;;5018632;28;51131;-52
2022/01/12 09:20:32;;;;;;;;;31.75;30.00;;;;;;;;5018761;28;51228;-48
2022/01/12 09:23:38;;;;;;;;;33.75;29.25;;;;;;;;5018557;28;51090;-54
2022/01/12 09:26:34;;;;;;;;;38.00;32.25;;;;;;;;5019097;28;51118;-52
2022/01/12 09:29:23;;;;;;;;;34.25;29.00;;;;;;;;5003953;28;51163;-50
2022/01/12 09:32:17;;;;;;;;;30.25;26.75;;;;;;;;5022563;28;51157;-49
2022/01/12 09:35:10;;;;;;;;;36.75;28.75;;;;;;;;5022848;28;51187;-50
2022/01/12 09:37:55;;;;;;;;;40.75;31.50;;;;;;;;5022673;28;51220;-53
2022/01/12 09:41:04;;;;;;;;;44.25;34.50;;;;;;;;5022641;28;51042;-53
2022/01/12 09:44:03;;;;;;;;;36.00;29.00;;;;;;;;5022249;28;51061;-48
2022/01/12 09:46:56;;;;;;;;;34.50;29.25;;;;;;;;5022565;28;51086;-47
2022/01/12 09:49:46;;;;;;;;;35.25;30.75;;;;;;;;5034555;28;52318;-52
2022/01/12 09:52:52;;;;;;;;;36.00;28.75;;;;;;;;5027764;28;51171;-49
2022/01/12 09:55:38;;;;;;;;;33.00;29.75;;;;;;;;5041983;28;51440;-52
2022/01/12 09:58:25;;;;;;;;;38.50;30.00;;;;;;;;5042384;28;51109;-48
2022/01/12 10:01:10;;;;;;;;;32.00;27.75;;;;;;;;5042347;28;51188;-51
2022/01/12 10:04:18;;;;;;;;;32.75;28.25;;;;;;;;5042122;28;51100;-54
2022/01/12 10:07:07;;;;;;;;;38.25;30.00;;;;;;;;5042625;28;51042;-50
2022/01/12 10:09:55;;;;;;;;;31.00;28.25;;;;;;;;5026461;28;51657;-51
2022/01/12 10:13:16;;;;;;;;;38.00;30.00;;;;;;;;5041693;28;51701;-49
2022/01/12 10:16:13;;;;;;;;;39.75;31.75;;;;;;;;5041847;28;51164;-51
2022/01/12 10:18:59;;;;;;;;;36.50;28.00;;;;;;;;5041899;28;51109;-49
2022/01/12 10:22:04;;;;;;;;;38.50;30.75;;;;;;;;5041413;28;51532;-50
2022/01/12 10:24:49;;;;;;;;;36.50;30.25;;;;;;;;5041770;28;51058;-48
2022/01/12 10:27:42;;;;;;;;;34.75;28.75;;;;;;;;5040947;28;51579;-49
2022/01/12 10:30:29;;;;;;;;;39.50;32.00;;;;;;;;5040372;28;51125;-49
2022/01/12 10:33:16;;;;;;;;;39.25;30.00;;;;;;;;5041952;28;51200;-52
2022/01/12 10:36:05;;;;;;;;;41.00;32.25;;;;;;;;5040561;28;51328;-51
2022/01/12 10:38:53;;;;;;;;;36.50;30.75;;;;;;;;5041123;28;51685;-48
2022/01/12 10:42:01;;;;;;;;;38.25;30.75;;;;;;;;5040834;28;51077;-52
2022/01/12 10:45:02;;;;;;;;;34.25;29.75;;;;;;;;5041257;28;51077;-51
2022/01/12 10:48:02;;;;;;;;;27.25;25.75;;;;;;;;5041255;28;51340;-49
2022/01/12 10:50:59;;;;;;;;;36.25;28.25;;;;;;;;5041133;28;51024;-49
2022/01/12 10:53:45;;;;;;;;;39.00;30.00;;;;;;;;5041090;28;51097;-52
2022/01/12 10:56:32;;;;;;;;;34.00;29.00;;;;;;;;5041121;28;51143;-53
2022/01/12 10:59:18;;;;;;;;;41.00;31.25;;;;;;;;5026260;28;51067;-51
2022/01/12 11:02:07;;;;;;;;;36.75;28.50;;;;;;;;5041034;28;51404;-52
2022/01/12 11:04:56;;;;;;;;;29.50;25.75;;;;;;;;5040961;28;51134;-50
2022/01/12 11:07:44;;;;;;;;;34.50;29.00;;;;;;;;5040857;28;51146;-49
2022/01/12 11:10:29;;;;;;;;;42.25;31.75;;;;;;;;5041245;28;51049;-48
2022/01/12 11:13:33;;;;;;;;;31.75;27.25;;;;;;;;5040887;28;51064;-49
2022/01/12 11:16:27;;;;;;;;;34.00;28.25;;;;;;;;5040986;28;51091;-48
2022/01/12 11:19:15;;;;;;;;;26.50;26.25;;;;;;;;5040840;28;51619;-51
2022/01/12 11:22:08;;;;;;;;;39.25;31.50;;;;;;;;5040388;28;51508;-51
2022/01/12 11:24:58;;;;;;;;;34.50;29.75;;;;;;;;5040525;28;51185;-51
2022/01/12 11:27:44;;;;;;;;;36.50;30.50;;;;;;;;5040675;28;51418;-51
2022/01/12 11:30:33;;;;;;;;;37.00;29.25;;;;;;;;5040623;28;51654;-52
2022/01/12 11:33:22;;;;;;;;;39.50;31.50;;;;;;;;5025260;28;52522;-48
2022/01/12 11:36:15;;;;;;;;;40.25;30.50;;;;;;;;5040698;28;51212;-54
2022/01/12 11:39:07;;;;;;;;;38.25;30.50;;;;;;;;5040058;28;51068;-52
2022/01/12 11:41:59;;;;;;;;;37.00;31.50;;;;;;;;5040294;28;51131;-50
2022/01/12 11:44:44;;;;;;;;;28.50;24.25;;;;;;;;5040431;28;50986;-53
2022/01/12 11:47:31;;;;;;;;;55.50;42.25;;;;;;;;5040080;28;51037;-51
2022/01/12 11:50:21;;;;;;;;;41.00;30.75;;;;;;;;5040102;28;51124;-51
2022/01/12 11:53:06;;;;;;;;;35.25;31.25;;;;;;;;5039619;28;51175;-50
2022/01/12 11:55:54;;;;;;;;;37.75;31.75;;;;;;;;5039789;28;51122;-48
2022/01/12 11:59:03;;;;;;;;;39.75;31.25;;;;;;;;5039830;28;51150;-50
2022/01/12 12:02:00;;;;;;;;;35.00;29.50;;;;;;;;5008611;28;51137;-47
2022/01/12 12:04:55;;;;;;;;;30.50;25.75;;;;;;;;5039777;28;51329;-48
2022/01/12 12:07:46;;;;;;;;;38.25;29.00;;;;;;;;5039633;28;51124;-53
2022/01/12 12:10:57;;;;;;;;;32.25;28.75;;;;;;;;5035530;28;51095;-47
2022/01/12 12:13:44;;;;;;;;;31.75;26.75;;;;;;;;5038368;28;51040;-49
2022/01/12 12:16:31;;;;;;;;;29.50;29.00;;;;;;;;5038063;28;51154;-48
2022/01/12 12:19:20;;;;;;;;;32.00;25.00;;;;;;;;5023801;28;51441;-48
2022/01/12 12:22:29;;;;;;;;;38.00;31.00;;;;;;;;5038784;28;51646;-51
2022/01/12 12:25:34;;;;;;;;;37.75;31.25;;;;;;;;5037751;28;51147;-49
2022/01/12 12:28:23;;;;;;;;;33.50;29.25;;;;;;;;5039082;28;50946;-52
2022/01/12 12:31:10;;;;;;;;;34.25;29.50;;;;;;;;5039158;28;51096;-51
2022/01/12 12:34:05;;;;;;;;;31.25;27.75;;;;;;;;5039515;28;51106;-51
2022/01/12 12:37:09;;;;;;;;;34.50;31.50;;;;;;;;5039437;28;51377;-52
2022/01/12 12:39:55;;;;;;;;;31.50;28.50;;;;;;;;5038887;28;51048;-49
2022/01/12 12:42:40;;;;;;;;;32.75;28.50;;;;;;;;5039539;28;51237;-50
2022/01/12 12:45:34;;;;;;;;;34.25;30.25;;;;;;;;5039104;28;51058;-50
2022/01/12 12:48:22;;;;;;;;;37.00;30.75;;;;;;;;5038278;28;51166;-50
2022/01/12 12:51:08;;;;;;;;;34.25;29.00;;;;;;;;5037577;28;51933;-47
2022/01/12 12:53:56;;;;;;;;;35.75;30.25;;;;;;;;5037630;28;51038;-53
2022/01/12 12:56:49;;;;;;;;;30.00;27.00;;;;;;;;5037846;28;50981;-51
2022/01/12 12:59:38;;;;;;;;;31.25;25.25;;;;;;;;5037110;28;51062;-53
2022/01/12 13:02:22;;;;;;;;;34.75;30.50;;;;;;;;5037588;28;51126;-48
2022/01/12 13:05:16;;;;;;;;;36.75;30.25;;;;;;;;5039458;28;51219;-47
2022/01/12 13:08:02;;;;;;;;;42.00;32.25;;;;;;;;5043658;28;51164;-49
2022/01/12 13:10:47;;;;;;;;;33.00;29.75;;;;;;;;5042832;28;51570;-52
2022/01/12 13:13:32;;;;;;;;;36.75;31.00;;;;;;;;5043060;28;51576;-48
2022/01/12 13:16:26;;;;;;;;;37.00;27.50;;;;;;;;5043098;28;51121;-51
2022/01/12 13:19:34;;;;;;;;;39.75;30.25;;;;;;;;5042288;28;51501;-49
2022/01/12 13:22:32;;;;;;;;;40.25;32.75;;;;;;;;5043060;28;51072;-51
2022/01/12 13:25:19;;;;;;;;;34.75;30.50;;;;;;;;5043302;28;51200;-49
2022/01/12 13:28:16;;;;;;;;;28.25;27.25;;;;;;;;5043025;28;51712;-51
2022/01/12 13:31:05;;;;;;;;;40.50;31.75;;;;;;;;5042527;28;51133;-50
2022/01/12 13:34:00;;;;;;;;;40.25;31.25;;;;;;;;5042532;28;51222;-46
2022/01/12 13:36:51;;;;;;;;;35.75;31.00;;;;;;;;5027451;28;51138;-49
2022/01/12 13:39:41;;;;;;;;;33.75;30.00;;;;;;;;5042773;28;51547;-53
2022/01/12 13:42:30;;;;;;;;;38.25;32.00;;;;;;;;5042635;28;51114;-53
2022/01/12 13:45:19;;;;;;;;;40.50;31.00;;;;;;;;5043050;28;51121;-48
2022/01/12 13:48:18;;;;;;;;;37.75;30.75;;;;;;;;5042575;28;51084;-46
2022/01/12 13:51:04;;;;;;;;;36.25;30.00;;;;;;;;5042016;28;51162;-52
2022/01/12 13:54:01;;;;;;;;;41.25;32.25;;;;;;;;5042456;28;51699;-49
2022/01/12 13:56:49;;;;;;;;;34.50;31.25;;;;;;;;5042202;28;51131;-50
2022/01/12 13:59:58;;;;;;;;;35.00;29.75;;;;;;;;5040145;28;51201;-51
2022/01/12 14:02:43;;;;;;;;;34.25;29.00;;;;;;;;5036990;28;51350;-52
2022/01/12 14:05:37;;;;;;;;;39.00;31.25;;;;;;;;5042027;28;51117;-52
2022/01/12 14:08:29;;;;;;;;;30.75;27.75;;;;;;;;5041905;28;51148;-52
2022/01/12 14:11:16;;;;;;;;;30.75;28.00;;;;;;;;5042407;28;51240;-49
2022/01/12 14:14:00;;;;;;;;;36.50;32.50;;;;;;;;5041568;28;51538;-52
2022/01/12 14:16:45;;;;;;;;;45.25;37.75;;;;;;;;5040830;28;51074;-50
2022/01/12 14:19:36;;;;;;;;;47.00;38.00;;;;;;;;5037630;28;51392;-51
2022/01/12 14:22:25;;;;;;;;;40.50;32.00;;;;;;;;5041656;28;51143;-47
2022/01/12 14:25:10;;;;;;;;;39.25;31.00;;;;;;;;5041846;28;51198;-49
2022/01/12 14:28:07;;;;;;;;;40.75;31.00;;;;;;;;5026362;28;51147;-52
2022/01/12 14:30:54;;;;;;;;;44.00;33.50;;;;;;;;5041745;28;51218;-52
2022/01/12 14:33:40;;;;;;;;;34.00;30.50;;;;;;;;5041610;28;51112;-52
2022/01/12 14:36:31;;;;;;;;;37.25;30.25;;;;;;;;5041393;28;51097;-48
2022/01/12 14:39:22;;;;;;;;;35.50;29.75;;;;;;;;5041310;28;51563;-49
2022/01/12 14:42:26;;;;;;;;;34.75;29.75;;;;;;;;5033209;28;51129;-51
2022/01/12 14:45:15;;;;;;;;;40.25;32.50;;;;;;;;5040731;28;51672;-53
2022/01/12 14:48:00;;;;;;;;;43.00;33.00;;;;;;;;5040428;28;51120;-52
2022/01/12 14:50:51;;;;;;;;;37.00;31.25;;;;;;;;5035936;28;51040;-50
2022/01/12 14:53:42;;;;;;;;;40.50;30.00;;;;;;;;5040120;28;51048;-48
2022/01/12 14:56:27;;;;;;;;;37.00;30.00;;;;;;;;5037652;28;53399;-52
2022/01/12 14:59:26;;;;;;;;;47.25;34.50;;;;;;;;5039711;28;51174;-54
2022/01/12 15:02:10;;;;;;;;;36.50;31.75;;;;;;;;5040927;28;51031;-50
2022/01/12 15:04:59;;;;;;;;;39.50;33.00;;;;;;;;5039460;28;51527;-49
2022/01/12 15:07:50;;;;;;;;;39.75;31.75;;;;;;;;5034040;28;52460;-53
2022/01/12 15:10:45;;;;;;;;;44.25;35.50;;;;;;;;5040009;28;51763;-49
2022/01/12 15:14:11;;;;;;;;;43.25;35.25;;;;;;;;5040432;28;51139;-51
2022/01/12 15:16:57;;;;;;;;;40.00;31.75;;;;;;;;5038774;28;51091;-51
2022/01/12 15:19:41;;;;;;;;;42.00;32.50;;;;;;;;5039673;28;51250;-50
2022/01/12 15:22:27;;;;;;;;;30.50;28.00;;;;;;;;5039801;28;51149;-48
2022/01/12 15:25:14;;;;;;;;;34.50;30.25;;;;;;;;5039946;28;51045;-50
2022/01/12 15:28:11;;;;;;;;;40.50;31.00;;;;;;;;5039905;28;51162;-47
2022/01/12 15:31:16;;;;;;;;;45.25;37.25;;;;;;;;5039326;28;51347;-49
2022/01/12 15:34:00;;;;;;;;;45.75;36.00;;;;;;;;5039780;28;51322;-52
2022/01/12 15:37:03;;;;;;;;;46.50;36.50;;;;;;;;5038792;28;51047;-47
2022/01/12 15:40:00;;;;;;;;;43.50;30.75;;;;;;;;5038789;28;51103;-49
2022/01/12 15:42:48;;;;;;;;;37.00;30.75;;;;;;;;5040291;28;50989;-50
2022/01/12 15:45:32;;;;;;;;;36.50;27.75;;;;;;;;5039919;28;51078;-51
2022/01/12 15:48:40;;;;;;;;;35.25;29.50;;;;;;;;5028946;28;51614;-49
2022/01/12 15:51:50;;;;;;;;;35.00;28.75;;;;;;;;5013973;28;51157;-49
2022/01/12 15:54:36;;;;;;;;;43.50;32.50;;;;;;;;5040143;28;51174;-49
2022/01/12 15:57:20;;;;;;;;;45.25;33.25;;;;;;;;5023690;28;51557;-51
2022/01/12 16:00:07;;;;;;;;;36.75;29.00;;;;;;;;5039566;28;51179;-48
2022/01/12 16:02:56;;;;;;;;;39.75;32.00;;;;;;;;5024591;28;51120;-50
2022/01/12 16:05:42;;;;;;;;;45.00;36.00;;;;;;;;5039672;28;51182;-53
2022/01/12 16:08:39;;;;;;;;;37.25;32.25;;;;;;;;5024266;28;51486;-49
2022/01/12 16:11:37;;;;;;;;;46.00;37.25;;;;;;;;5039040;28;51207;-48
2022/01/12 16:14:28;;;;;;;;;46.25;35.75;;;;;;;;5039479;28;51611;-51
2022/01/12 16:17:20;;;;;;;;;42.00;32.75;;;;;;;;5039142;28;51689;-51
2022/01/12 16:23:19;;;;;;;;;45.75;33.75;;;;;;;;5026052;28;51585;-53
2022/01/12 16:26:04;;;;;;;;;37.75;32.25;;;;;;;;5039036;28;51061;-50
2022/01/12 16:29:10;;;;;;;;;38.00;32.00;;;;;;;;5039062;28;51674;-50
2022/01/12 16:31:57;;;;;;;;;48.25;33.75;;;;;;;;5039522;28;51274;-49
2022/01/12 16:34:41;;;;;;;;;38.00;29.75;;;;;;;;5023501;28;51537;-48
2022/01/12 16:37:29;;;;;;;;;37.75;32.75;;;;;;;;5038517;28;51186;-50
2022/01/12 16:40:33;;;;;;;;;45.75;34.50;;;;;;;;5038731;28;51576;-48
2022/01/12 16:43:18;;;;;;;;;39.75;33.75;;;;;;;;5038687;28;51042;-48
2022/01/12 16:46:06;;;;;;;;;39.25;30.75;;;;;;;;5018115;28;51162;-48
2022/01/12 16:48:55;;;;;;;;;47.25;35.50;;;;;;;;5038499;28;51078;-48
2022/01/12 16:51:39;;;;;;;;;37.75;32.00;;;;;;;;5038991;28;51070;-48
2022/01/12 16:54:28;;;;;;;;;38.75;31.75;;;;;;;;5039163;28;51019;-48
2022/01/12 16:57:18;;;;;;;;;38.00;32.00;;;;;;;;5050408;28;51065;-49
2022/01/12 17:00:09;;;;;;;;;43.00;35.25;;;;;;;;5038313;28;51457;-47
2022/01/12 17:02:54;;;;;;;;;44.00;35.50;;;;;;;;5038772;28;51140;-51
2022/01/12 17:05:54;;;;;;;;;45.00;35.25;;;;;;;;5039186;28;51676;-48
2022/01/12 17:08:43;;;;;;;;;38.00;29.50;;;;;;;;5036559;28;51103;-49
2022/01/12 17:11:35;;;;;;;;;46.75;36.00;;;;;;;;5035738;28;51048;-51
2022/01/12 17:14:19;;;;;;;;;31.00;24.50;;;;;;;;5037783;28;51449;-50
2022/01/12 17:17:05;;;;;;;;;39.00;34.25;;;;;;;;5026458;28;51466;-48
2022/01/12 17:20:05;;;;;;;;;46.75;33.75;;;;;;;;5038068;28;51143;-51
2022/01/12 17:23:00;;;;;;;;;45.50;36.75;;;;;;;;5038705;28;51088;-48
2022/01/12 17:25:45;;;;;;;;;35.50;32.75;;;;;;;;5037063;28;51410;-50
2022/01/12 17:28:32;;;;;;;;;47.25;38.50;;;;;;;;5037763;28;51111;-53
2022/01/12 17:31:17;;;;;;;;;39.25;33.50;;;;;;;;5037181;28;51805;-50
2022/01/12 17:34:05;;;;;;;;;30.25;30.00;;;;;;;;5037736;28;51135;-48
2022/01/12 17:36:50;;;;;;;;;36.25;31.25;;;;;;;;5038613;28;51092;-48
2022/01/12 17:39:53;;;;;;;;;44.50;34.25;;;;;;;;5038096;28;51479;-47
2022/01/12 17:42:41;;;;;;;;;39.75;32.00;;;;;;;;5022685;28;51641;-51
2022/01/12 17:45:25;;;;;;;;;35.00;31.25;;;;;;;;5037125;28;51021;-53
2022/01/12 17:48:25;;;;;;;;;43.75;31.75;;;;;;;;5031950;28;51176;-50
2022/01/12 17:51:11;;;;;;;;;40.25;31.75;;;;;;;;5033753;28;51233;-51